地図

経路データ

SID SEASON NUMBER BASIN SUBBASIN NAME ISO_TIME NATURE LAT LON WMO_WIND WMO_PRES WMO_AGENCY TRACK_TYPE DIST2LAND LANDFALL IFLAG USA_AGENCY USA_ATCF_ID USA_LAT USA_LON USA_RECORD USA_STATUS USA_WIND USA_PRES USA_SSHS USA_R34_NE USA_R34_SE USA_R34_SW USA_R34_NW USA_R50_NE USA_R50_SE USA_R50_SW USA_R50_NW USA_R64_NE USA_R64_SE USA_R64_SW USA_R64_NW USA_POCI USA_ROCI USA_RMW USA_EYE TOKYO_LAT TOKYO_LON TOKYO_GRADE TOKYO_WIND TOKYO_PRES TOKYO_R50_DIR TOKYO_R50_LONG TOKYO_R50_SHORT TOKYO_R30_DIR TOKYO_R30_LONG TOKYO_R30_SHORT TOKYO_LAND CMA_LAT CMA_LON CMA_CAT CMA_WIND CMA_PRES HKO_LAT HKO_LON HKO_CAT HKO_WIND HKO_PRES NEWDELHI_LAT NEWDELHI_LON NEWDELHI_GRADE NEWDELHI_WIND NEWDELHI_PRES NEWDELHI_CI NEWDELHI_DP NEWDELHI_POCI REUNION_LAT REUNION_LON REUNION_TYPE REUNION_WIND REUNION_PRES REUNION_TNUM REUNION_CI REUNION_RMW REUNION_R34_NE REUNION_R34_SE REUNION_R34_SW REUNION_R34_NW REUNION_R50_NE REUNION_R50_SE REUNION_R50_SW REUNION_R50_NW REUNION_R64_NE REUNION_R64_SE REUNION_R64_SW REUNION_R64_NW BOM_LAT BOM_LON BOM_TYPE BOM_WIND BOM_PRES BOM_TNUM BOM_CI BOM_RMW BOM_R34_NE BOM_R34_SE BOM_R34_SW BOM_R34_NW BOM_R50_NE BOM_R50_SE BOM_R50_SW BOM_R50_NW BOM_R64_NE BOM_R64_SE BOM_R64_SW BOM_R64_NW BOM_ROCI BOM_POCI BOM_EYE BOM_POS_METHOD BOM_PRES_METHOD NADI_LAT NADI_LON NADI_CAT NADI_WIND NADI_PRES WELLINGTON_LAT WELLINGTON_LON WELLINGTON_WIND WELLINGTON_PRES DS824_LAT DS824_LON DS824_STAGE DS824_WIND DS824_PRES TD9636_LAT TD9636_LON TD9636_STAGE TD9636_WIND TD9636_PRES TD9635_LAT TD9635_LON TD9635_WIND TD9635_PRES TD9635_ROCI NEUMANN_LAT NEUMANN_LON NEUMANN_CLASS NEUMANN_WIND NEUMANN_PRES MLC_LAT MLC_LON MLC_CLASS MLC_WIND MLC_PRES USA_GUST BOM_GUST BOM_GUST_PER REUNION_GUST REUNION_GUST_PER USA_SEAHGT USA_SEARAD_NE USA_SEARAD_SE USA_SEARAD_SW USA_SEARAD_NW STORM_SPEED STORM_DIR
1946190N17137 1946 37 WP MM NOT_NAMED 1946-07-08 12:00:00 NR 16.8000 136.500 main 1291 1271 __________O___ -1 16.8000 136.500 7 4 261
1946190N17137 1946 37 WP MM NOT_NAMED 1946-07-08 15:00:00 NR 16.7693 136.290 main 1271 1242 __________P___ -1 16.7693 136.290 7 5 268
1946190N17137 1946 37 WP MM NOT_NAMED 1946-07-08 18:00:00 NR 16.7810 136.025 main 1242 1212 __________P___ -1 16.7810 136.025 7 6 280
1946190N17137 1946 37 WP MM NOT_NAMED 1946-07-08 21:00:00 NR 16.8773 135.647 main 1207 1169 __________P___ -1 16.8773 135.647 7 9 290
1946190N17137 1946 37 WP MM NOT_NAMED 1946-07-09 00:00:00 NR 17.1000 135.100 main 1169 1119 __________O___ -1 17.1000 135.100 3 14 296
1946190N17137 1946 37 WP MM NOT_NAMED 1946-07-09 03:00:00 NR 17.4732 134.344 main 1116 1069 __________P___ -1 17.4732 134.344 3 18 298
1946190N17137 1946 37 WP MM NOT_NAMED 1946-07-09 06:00:00 NR 17.9537 133.420 main 1066 997 __________P___ -1 17.9537 133.420 3 21 298
1946190N17137 1946 37 WP MM NOT_NAMED 1946-07-09 09:00:00 NR 18.4821 132.385 main 997 933 __________P___ -1 18.4821 132.385 3 23 298
1946190N17137 1946 37 WP MM NOT_NAMED 1946-07-09 12:00:00 NR 19.0000 131.300 main 931 848 __________O___ -1 19.0000 131.300 4 23 295
1946190N17137 1946 37 WP MM NOT_NAMED 1946-07-09 15:00:00 NR 19.4475 130.193 main 838 731 __________P___ -1 19.4475 130.193 4 23 292
1946190N17137 1946 37 WP MM NOT_NAMED 1946-07-09 18:00:00 NR 19.8701 129.062 main 733 631 __________P___ -1 19.8701 129.062 4 22 291
1946190N17137 1946 37 WP MM NOT_NAMED 1946-07-09 21:00:00 NR 20.2572 127.974 main 634 550 __________P___ -1 20.2572 127.974 4 21 291
1946190N17137 1946 37 WP MM NOT_NAMED 1946-07-10 00:00:00 NR 20.6000 127.000 main 550 488 __________O___ -1 20.6000 127.000 4 18 289
1946190N17137 1946 37 WP MM NOT_NAMED 1946-07-10 03:00:00 NR 20.8412 126.200 main 488 451 __________P___ -1 20.8412 126.200 4 15 288
1946190N17137 1946 37 WP MM NOT_NAMED 1946-07-10 06:00:00 NR 21.0513 125.523 main 450 421 __________P___ -1 21.0513 125.523 4 13 291
1946190N17137 1946 37 WP MM NOT_NAMED 1946-07-10 09:00:00 NR 21.2859 124.935 main 412 351 __________P___ -1 21.2859 124.935 4 12 298
1946190N17137 1946 37 WP MM NOT_NAMED 1946-07-10 12:00:00 NR 21.6000 124.400 main 351 279 __________O___ -1 21.6000 124.400 4 13 308
1946190N17137 1946 37 WP MM NOT_NAMED 1946-07-10 15:00:00 NR 22.0872 123.846 main 270 212 __________P___ -1 22.0872 123.846 4 14 317
1946190N17137 1946 37 WP MM NOT_NAMED 1946-07-10 18:00:00 NR 22.6539 123.334 main 199 153 __________P___ -1 22.6539 123.334 4 15 322
1946190N17137 1946 37 WP MM NOT_NAMED 1946-07-10 21:00:00 NR 23.2437 122.855 main 153 87 __________P___ -1 23.2437 122.855 4 14 323
1946190N17137 1946 37 WP MM NOT_NAMED 1946-07-11 00:00:00 NR 23.8000 122.400 main 87 30 __________O___ -1 23.8000 122.400 4 13 320
1946190N17137 1946 37 WP MM NOT_NAMED 1946-07-11 03:00:00 NR 24.2383 121.952 main 30 0 __________P___ -1 24.2383 121.952 4 12 316
1946190N17137 1946 37 WP MM NOT_NAMED 1946-07-11 06:00:00 NR 24.6365 121.525 main 0 0 __________P___ -1 24.6365 121.525 4 11 316
1946190N17137 1946 37 WP MM NOT_NAMED 1946-07-11 09:00:00 NR 25.0165 121.111 main 0 0 __________P___ -1 25.0165 121.111 4 11 316
1946190N17137 1946 37 WP MM NOT_NAMED 1946-07-11 12:00:00 NR 25.4000 120.700 main 53 53 __________O___ -1 25.4000 120.700 4 11 316
1946190N17137 1946 37 WP MM NOT_NAMED 1946-07-11 15:00:00 NR 25.8039 120.284 main 61 14 __________P___ -1 25.8039 120.284 4 11 318
1946190N17137 1946 37 WP MM NOT_NAMED 1946-07-11 18:00:00 NR 26.2263 119.861 main 14 0 __________P___ -1 26.2263 119.861 4 12 318
1946190N17137 1946 37 WP MM NOT_NAMED 1946-07-11 21:00:00 NR 26.6605 119.433 main 0 0 __________P___ -1 26.6605 119.433 4 12 319
1946190N17137 1946 37 WP MM NOT_NAMED 1946-07-12 00:00:00 NR 27.1000 119.000 main 0 __________O___ -1 27.1000 119.000 7 12 319

デジタル台風データ・検索

IBTrACS Databaseについて

本データベースは、米国NOAAが公開する1842年以降の世界の熱帯低気圧のベストトラックデータアーカイブInternational Best Track Archive for Climate Stewardship (IBTrACS)を、ウェブで閲覧しやすい形式に変換したものです。

最終更新日:2021-12-08